首页
METAR-TAF:

METAR-TAF

机场 :

腓特烈港机场

腓特烈港, 德国

纬度: 47-40N, 经度: 009-31E, 海拔: 416米

当前天气观测

该预报发布于30分钟前的21:50 UTC
静风
温度 1°C
湿度 93%
气压 1019 hPa
能見度: 3800

METAR: EDNY 262150Z AUTO 00000KT 3800 // BKN002/// OVC055/// 01/00 Q1019

时间: 23:20 (22:20 UTC)

预报

该预报发布于5小时和20分钟前的17:00 UTC
预报有效从26日的 18点(UTC)到 27日的 18点(UTC)
风速2节,风向多变
能見度: 0700
散云层高于100英尺
阴天层高于200英尺
短暂存在
从 26日的 18点(UTC)到 26日的 24点(UTC)
能見度: 0300
层高于100英尺
冻雾
短暂存在
从 27日的 00点(UTC)到 27日的 09点(UTC)
能見度: 3500
散云层高于200英尺
碎片雾
成为
从 27日的 09点(UTC)到 27日的 11点(UTC)
能見度: 8000
散云层高于200英尺

TAF: EDNY 261700Z 2618/2718 VRB02KT 0700 FG SCT001 OVC002 TEMPO 2618/2624 0300 FZFG VV001 TEMPO 2700/2709 3500 BCFG SCT002 BECMG 2709/2711 8000 SCT002

超过4000个机场的气象观测和天气预报(METAR&TAF报告)。

可查询的气象台以黄色和红色小点在地图上表示。

将鼠标移到小点上方,可查看气象台名称。

然后点击查看天气观测和预报。

如需切换地图:点击带黑十字的绿色按钮放大地图;点击带横线的绿色按钮缩小地图;或者点击绿色箭头查看邻近地区的地图。


METAR-TAF: